Latest Weather Observations for McArthur River Mine

IDD60801

Issued at 5:31 am CST Friday 29 May 2015 (issued every 30 minutes, with the page automatically refreshed every 10 minutes)

About weather observations | Map of weather stations | Latest weather observations for NT | Other Formats
Station Details ID: 014704 Name: MCARTHUR RIVER MINE AIRPORT Lat: -16.44 Lon: 136.08 Height: 40.0 m
Data from the previous 72 hours. | See also: Recent months at McArthur River Mine
Date/Time
CST
Temp
°C
App
Temp
°C
Dew
Point
Rel
Hum
%
Delta-T
°C
Wind Press
QNH
hPa
Press
MSL
hPa
Rain
since 9 am
mm
Dir
 
Spd
km/h
Gust
km/h
Spd
kts
Gust
kts
29/05:30am 18.0 20.1 18.0 100 0.0 WSW 4 7 2 4 1014.9 - 0.0
29/05:00am 18.4 20.6 18.4 100 0.0 WSW 4 7 2 4 1014.8 - 0.0
29/04:30am 18.6 20.9 18.6 100 0.0 W 4 6 2 3 1014.6 - 0.0
29/04:00am 18.9 21.0 18.9 100 0.0 WNW 6 7 3 4 1014.6 - 0.0
29/03:39am 19.0 22.3 19.0 100 0.0 CALM 0 0 0 0 1014.7 - 0.0
29/03:30am 19.3 22.7 19.3 100 0.0 CALM 0 0 0 0 1014.8 - 0.0
29/03:28am 19.4 22.8 19.4 100 0.0 CALM 0 0 0 0 1014.8 - 0.0
29/03:07am 19.3 22.7 19.3 100 0.0 CALM 0 0 0 0 1015.0 - 0.0
29/03:00am 19.3 22.7 19.3 100 0.0 CALM 0 0 0 0 1014.9 1014.7 0.0
29/02:52am 19.3 22.7 19.3 100 0.0 CALM 0 0 0 0 1015.1 - 0.0
29/02:30am 20.0 23.3 20.0 100 0.0 WSW 2 6 1 3 1015.0 - 0.0
29/02:00am 20.3 22.8 20.3 100 0.0 WSW 7 7 4 4 1015.0 - 0.0
29/01:30am 20.7 23.3 20.0 96 0.4 SSW 6 7 3 4 1015.1 - 0.0
29/01:00am 21.1 24.4 19.0 88 1.3 CALM 0 0 0 0 1015.2 - 0.0
29/12:56am 21.2 24.4 18.8 86 1.5 CALM 0 0 0 0 1015.1 - 0.0
29/12:44am 21.9 25.4 20.4 91 1.0 NE 2 6 1 3 1015.1 - 0.0
29/12:30am 22.0 25.8 20.1 89 1.2 CALM 0 4 0 2 1015.2 - 0.0
29/12:00am 22.5 26.1 19.7 84 1.8 CALM 0 0 0 0 1015.3 1015.1 0.0
 
Date/Time
CST
Temp
°C
App
Temp
°C
Dew
Point
Rel
Hum
%
Delta-T
°C
Wind Press
QNH
hPa
Press
MSL
hPa
Rain
since 9 am
mm
Dir
 
Spd
km/h
Gust
km/h
Spd
kts
Gust
kts
28/11:30pm 24.2 26.9 20.7 81 2.3 NE 7 11 4 6 1015.5 - 0.0
28/11:00pm 24.7 26.8 20.2 76 2.9 NE 9 15 5 8 1015.6 - 0.0
28/10:30pm 25.1 27.0 19.7 72 3.5 NE 9 13 5 7 1015.8 - 0.0
28/10:12pm 25.3 27.0 19.4 70 3.8 NNE 9 13 5 7 1015.8 - 0.0
28/10:00pm 25.4 27.2 18.8 67 4.2 NNE 7 13 4 7 1015.8 - 0.0
28/09:56pm 25.5 27.4 18.9 67 4.2 NNE 7 11 4 6 1015.8 - 0.0
28/09:30pm 25.6 26.7 17.0 59 5.3 NE 7 11 4 6 1015.6 - 0.0
28/09:00pm 26.5 26.7 15.8 51 6.5 NE 9 13 5 7 1015.4 1015.2 0.0
28/08:30pm 27.3 26.7 14.7 46 7.6 NE 11 15 6 8 1015.3 - 0.0
28/08:00pm 28.1 27.2 13.6 41 8.6 NE 11 17 6 9 1014.9 - 0.0
28/07:30pm 28.6 27.8 12.9 38 9.3 NNE 9 13 5 7 1014.4 - 0.0
28/07:00pm 29.2 28.3 12.6 36 9.8 NNE 9 15 5 8 1013.9 - 0.0
28/06:30pm 30.1 28.9 11.6 32 10.7 NNE 9 15 5 8 1013.5 - 0.0
28/06:00pm 31.3 29.6 7.7 23 13.0 E 6 9 3 5 1013.0 1012.8 0.0
28/05:30pm 33.2 30.8 7.2 20 14.3 E 9 13 5 7 1012.9 - 0.0
28/05:00pm 34.1 31.9 6.4 18 15.1 NE 7 11 4 6 1012.8 - 0.0
28/04:30pm 34.1 31.0 7.2 19 14.9 ESE 13 20 7 11 1012.7 - 0.0
28/04:00pm 34.4 32.3 6.7 18 15.2 E 7 13 4 7 1012.7 - 0.0
28/03:30pm 34.3 31.6 7.4 19 14.9 ENE 11 20 6 11 1012.8 - 0.0
28/03:00pm 34.3 31.8 8.1 20 14.7 ENE 11 22 6 12 1012.9 1012.7 0.0
28/02:30pm 34.5 32.0 8.3 20 14.7 E 11 20 6 11 1013.1 - 0.0
28/02:00pm 34.3 31.9 8.8 21 14.5 ENE 11 22 6 12 1013.5 - 0.0
28/01:30pm 34.4 31.5 9.6 22 14.2 ENE 15 43 8 23 1013.7 - 0.0
28/01:00pm 34.0 31.9 9.9 23 13.9 E 11 20 6 11 1014.2 - 0.0
28/12:30pm 33.4 30.6 10.1 24 13.4 NE 15 32 8 17 1014.6 - 0.0
28/12:00pm 33.1 29.3 9.8 24 13.3 E 20 30 11 16 1015.1 1014.9 0.0
28/11:30am 32.7 29.7 10.7 26 12.7 ENE 17 26 9 14 1015.4 - 0.0
28/11:00am 32.8 30.4 11.3 27 12.6 E 15 24 8 13 1015.7 - 0.0
28/10:30am 30.6 30.1 13.8 35 10.1 ESE 9 15 5 8 1016.1 - 0.0
28/10:00am 29.0 28.7 15.5 44 8.3 ESE 11 19 6 10 1016.3 - 0.0
28/09:30am 26.2 28.5 19.8 68 4.2 S 7 11 4 6 1016.4 - 0.0
28/09:00am 24.3 28.0 22.6 90 1.1 S 7 9 4 5 1016.3 1016.2 0.0
28/08:30am 21.9 - 22.1 - - SW 6 7 3 4 1016.0 - 0.0
28/08:12am 20.9 - 21.1 - - WSW 6 9 3 5 1015.9 - 0.0
28/08:00am 20.4 - 20.7 - - SW 7 9 4 5 1015.8 - 0.0
28/07:47am 19.8 - 20.1 - - SW 6 9 3 5 1015.7 - 0.0
28/07:30am 18.9 - 19.2 - - WSW 6 7 3 4 1015.5 - 0.0
28/07:00am 18.3 - 18.6 - - WSW 2 7 1 4 1015.2 - 0.0
28/06:30am 18.3 - 18.5 - - WSW 7 7 4 4 1014.8 - 0.0
28/06:00am 18.5 - 18.7 - - SW 6 7 3 4 1014.5 1014.3 0.0
28/05:30am 18.5 - 18.7 - - SW 6 7 3 4 1014.2 - 0.0
28/05:00am 18.7 - 18.9 - - W 4 7 2 4 1014.0 - 0.0
28/04:57am 18.7 - 18.9 - - W 2 7 1 4 1014.0 - 0.0
28/04:30am 19.0 - 19.2 - - WNW 4 6 2 3 1013.9 - 0.0
28/04:00am 19.2 - 19.4 - - WSW 6 7 3 4 1014.0 - 0.0
28/03:30am 20.4 - 20.6 - - SSW 4 6 2 3 1014.3 - 0.0
28/03:22am 20.5 - 20.7 - - SSW 6 6 3 3 1014.3 - 0.0
28/03:00am 20.7 - 20.9 - - SW 6 6 3 3 1014.5 1014.3 0.0
28/02:30am 20.8 - 21.0 - - W 2 6 1 3 1014.6 - 0.0
28/02:15am 21.3 - 21.5 - - WNW 6 7 3 4 1014.7 - 0.0
28/02:01am 21.4 - 21.6 - - SSE 2 7 1 4 1014.9 - 0.0
28/02:00am 21.5 - 21.7 - - SSE 2 7 1 4 1014.9 - 0.0
28/01:30am 21.9 26.6 21.9 100 0.0 CALM 0 0 0 0 1015.2 - 0.0
28/01:00am 22.9 28.1 22.9 100 0.0 CALM 0 0 0 0 1015.5 - 0.0
28/12:30am 23.3 27.6 23.3 100 0.0 ESE 6 7 3 4 1015.6 - 0.0
28/12:00am 23.8 27.8 23.8 100 0.0 ENE 9 13 5 7 1015.6 1015.5 0.0
 
Date/Time
CST
Temp
°C
App
Temp
°C
Dew
Point
Rel
Hum
%
Delta-T
°C
Wind Press
QNH
hPa
Press
MSL
hPa
Rain
since 9 am
mm
Dir
 
Spd
km/h
Gust
km/h
Spd
kts
Gust
kts
27/11:35pm 23.9 28.0 23.9 100 0.0 NE 9 17 5 9 1015.5 - 0.0
27/11:30pm 24.0 27.8 24.0 100 0.0 NE 11 17 6 9 1015.5 - 0.0
27/11:17pm 24.1 27.9 24.1 100 0.0 NE 11 17 6 9 1015.4 - 0.0
27/11:00pm 24.3 28.2 24.3 100 0.0 NE 11 17 6 9 1015.4 - 0.0
27/10:30pm 24.4 28.0 23.7 96 0.5 NE 11 17 6 9 1015.4 - 0.0
27/10:00pm 24.8 27.6 23.0 90 1.2 NE 13 20 7 11 1015.3 - 0.0
27/09:30pm 25.3 27.6 22.0 82 2.2 NNE 13 20 7 11 1015.2 - 0.0
27/09:00pm 25.7 27.3 20.0 71 3.7 NE 11 20 6 11 1015.1 1014.9 0.0
27/08:30pm 26.2 27.3 19.6 67 4.3 NNE 13 19 7 10 1014.8 - 0.0
27/08:00pm 26.9 26.8 19.5 64 4.8 NE 19 24 10 13 1014.4 - 0.0
27/07:30pm 27.7 27.6 18.7 58 5.8 NE 17 24 9 13 1013.9 - 0.0
27/07:00pm 28.4 28.7 17.9 53 6.7 NE 13 20 7 11 1013.4 - 0.0
27/06:30pm 29.1 29.5 17.3 49 7.5 NNE 11 20 6 11 1012.9 - 0.0
27/06:00pm 30.1 29.8 16.5 44 8.5 NNE 13 22 7 12 1012.4 1012.2 0.0
27/05:30pm 33.2 29.8 5.7 18 14.8 E 13 19 7 10 1012.0 - 0.0
27/05:00pm 33.9 30.8 5.4 17 15.3 ESE 11 19 6 10 1011.8 - 0.0
27/04:30pm 34.3 31.3 5.8 17 15.4 E 11 20 6 11 1011.8 - 0.0
27/04:00pm 34.6 31.6 6.0 17 15.5 ESE 11 17 6 9 1011.9 - 0.0
27/03:30pm 34.6 31.6 6.0 17 15.5 ENE 11 19 6 10 1012.0 - 0.0
27/03:00pm 35.0 32.6 7.1 18 15.5 ESE 9 19 5 10 1012.3 1012.1 0.0
27/02:30pm 34.7 31.1 6.9 18 15.3 E 15 26 8 14 1012.7 - 0.0
27/02:00pm 33.7 30.1 6.9 19 14.7 E 15 22 8 12 1013.2 - 0.0
27/01:30pm 33.8 29.5 7.7 20 14.5 E 20 28 11 15 1013.7 - 0.0
27/01:00pm 33.9 30.2 7.8 20 14.5 E 17 28 9 15 1014.3 - 0.0
27/12:30pm 33.7 29.9 9.0 22 14.0 ESE 19 26 10 14 1014.8 - 0.0
27/12:00pm 33.1 30.0 10.4 25 13.1 E 17 26 9 14 1015.3 1015.1 0.0
27/11:30am 32.2 28.8 11.4 28 12.2 ESE 20 32 11 17 1016.0 - 0.0
27/11:00am 31.8 28.5 11.6 29 11.8 E 20 33 11 18 1016.3 - 0.0
27/10:30am 31.2 29.1 12.5 31 11.1 E 15 26 8 14 1016.5 - 0.0
27/10:00am 30.4 28.7 13.7 36 10.0 E 15 24 8 13 1016.7 - 0.0
27/09:30am 28.3 28.1 16.6 49 7.3 ESE 13 20 7 11 1016.8 - 0.0
27/09:00am 24.8 28.0 20.5 77 2.8 SSE 4 9 2 5 1016.9 1016.8 0.0
27/08:30am 22.5 27.5 22.5 100 0.0 CALM 0 0 0 0 1016.8 - 0.0
27/08:00am 20.4 24.3 20.4 100 0.0 CALM 0 0 0 0 1016.5 - 0.0
27/07:30am 18.9 - 19.1 - - CALM 0 0 0 0 1016.3 - 0.0
27/07:21am 18.6 - 18.8 - - CALM 0 0 0 0 1016.3 - 0.0
27/07:00am 18.3 - 18.5 - - CALM 0 0 0 0 1016.2 - 0.0
27/06:55am 18.3 - 18.5 - - CALM 0 0 0 0 1016.1 - 0.0
27/06:30am 18.3 - 18.5 - - CALM 0 0 0 0 1016.0 - 0.0
27/06:22am 18.4 - 18.6 - - CALM 0 0 0 0 1015.9 - 0.0
27/06:02am 18.7 - 18.9 - - CALM 0 0 0 0 1015.8 - 0.0
27/06:00am 18.8 - 19.0 - - CALM 0 0 0 0 1015.8 1015.7 0.0
27/05:38am 19.0 - 19.2 - - CALM 0 4 0 2 1015.6 - 0.0
27/05:30am 19.0 - 19.2 - - W 4 6 2 3 1015.5 - 0.0
27/05:00am 19.1 - 19.3 - - WNW 6 6 3 3 1015.4 - 0.0
27/04:58am 19.1 - 19.3 - - W 6 6 3 3 1015.4 - 0.0
27/04:30am 19.7 - 19.9 - - WSW 7 7 4 4 1015.5 - 0.0
27/04:23am 19.8 - 20.0 - - SW 6 7 3 4 1015.6 - 0.0
27/04:16am 19.9 - 20.1 - - SW 6 7 3 4 1015.6 - 0.0
27/04:00am 20.0 - 20.2 - - SSW 6 6 3 3 1015.7 - 0.0
27/03:30am 20.0 - 20.2 - - CALM 0 7 0 4 1015.6 - 0.0
27/03:26am 19.9 - 20.1 - - CALM 0 0 0 0 1015.6 - 0.0
27/03:23am 19.8 - 20.0 - - CALM 0 0 0 0 1015.6 - 0.0
27/03:00am 20.0 23.7 20.0 100 0.0 CALM 0 0 0 0 1015.7 1015.6 0.0
27/02:43am 20.9 - 21.1 - - W 2 6 1 3 1015.8 - 0.0
27/02:30am 20.9 - 21.1 - - W 6 7 3 4 1016.0 - 0.0
27/02:19am 21.1 - 21.3 - - WSW 7 9 4 5 1016.1 - 0.0
27/02:09am 21.0 - 21.2 - - N 2 7 1 4 1016.2 - 0.0
27/02:00am 21.0 25.2 21.0 100 0.0 CALM 0 0 0 0 1016.2 - 0.0
27/01:30am 21.5 26.0 21.5 100 0.0 CALM 0 0 0 0 1016.5 - 0.0
27/01:00am 21.6 26.1 21.6 100 0.0 CALM 0 0 0 0 1016.7 - 0.0
27/12:30am 23.2 28.2 23.2 100 0.0 NE 2 6 1 3 1016.9 - 0.0
27/12:04am 23.5 27.9 23.5 100 0.0 ENE 6 7 3 4 1017.0 - 0.0
27/12:00am 23.6 28.1 23.6 100 0.0 ENE 6 9 3 5 1017.0 1016.9 0.0
 
Date/Time
CST
Temp
°C
App
Temp
°C
Dew
Point
Rel
Hum
%
Delta-T
°C
Wind Press
QNH
hPa
Press
MSL
hPa
Rain
since 9 am
mm
Dir
 
Spd
km/h
Gust
km/h
Spd
kts
Gust
kts
26/11:48pm 23.8 28.2 23.8 100 0.0 NNE 7 9 4 5 1017.2 - 0.0
26/11:36pm 24.1 28.7 23.8 98 0.2 NNE 6 7 3 4 1017.3 - 0.0
26/11:30pm 24.1 28.7 23.8 98 0.2 NE 6 7 3 4 1017.3 - 0.0
26/11:18pm 24.1 28.2 23.2 95 0.6 ESE 7 11 4 6 1017.4 - 0.0
26/11:00pm 24.5 28.8 23.6 95 0.6 NE 7 11 4 6 1017.1 - 0.0
26/10:30pm 25.0 28.2 23.1 89 1.3 NE 11 15 6 8 1017.1 - 0.0
26/10:00pm 25.2 28.0 21.5 80 2.5 NE 9 15 5 8 1017.0 - 0.0
26/09:30pm 25.8 27.8 20.8 74 3.3 NNE 11 17 6 9 1017.0 - 0.0
26/09:23pm 25.9 28.0 20.2 71 3.7 NNE 9 15 5 8 1016.9 - 0.0
26/09:09pm 26.1 28.0 19.7 68 4.1 NNE 9 15 5 8 1016.9 - 0.0
26/09:00pm 26.2 27.9 19.3 65 4.4 NNE 9 13 5 7 1016.8 1016.7 0.0
26/08:30pm 26.6 28.0 18.7 62 5.1 NNE 9 15 5 8 1016.4 - 0.0
26/08:00pm 27.1 27.8 18.9 61 5.3 NNE 13 20 7 11 1016.2 - 0.0
26/07:30pm 27.8 28.2 19.1 59 5.6 NNE 15 22 8 12 1015.8 - 0.0
26/07:00pm 28.4 28.5 19.1 57 6.0 NE 17 28 9 15 1015.2 - 0.0
26/06:30pm 29.2 30.1 19.2 54 6.5 NNE 13 20 7 11 1014.8 - 0.0
26/06:00pm 29.9 29.8 18.7 51 7.2 NE 17 24 9 13 1014.4 1014.2 0.0
26/05:30pm 31.1 30.7 18.1 46 8.4 NNE 17 26 9 14 1014.2 - 0.0
26/05:00pm 32.2 30.9 16.9 40 9.7 NNE 19 28 10 15 1013.9 - 0.0
26/04:30pm 34.5 33.1 11.0 24 13.8 E 9 19 5 10 1013.5 - 0.0
26/04:00pm 34.9 33.6 11.3 24 13.9 E 9 17 5 9 1013.4 - 0.0
26/03:30pm 35.1 32.7 10.2 22 14.5 E 13 15 7 8 1013.7 - 0.0
26/03:00pm 35.2 33.0 10.9 23 14.3 E 13 19 7 10 1013.8 1013.6 0.0
26/02:30pm 35.0 32.2 10.1 22 14.4 ENE 15 22 8 12 1014.0 - 0.0
26/02:00pm 34.6 32.5 11.1 24 13.8 ENE 13 30 7 16 1014.3 - 0.0
26/01:30pm 34.3 32.1 10.8 24 13.7 E 13 22 7 12 1014.9 - 0.0
26/01:00pm 33.7 31.7 10.3 24 13.5 ESE 11 24 6 13 1015.7 - 0.0
26/12:30pm 33.5 31.5 11.4 26 13.0 E 13 22 7 12 1016.3 - 0.0
26/12:00pm 33.5 31.1 11.4 26 13.0 ESE 15 20 8 11 1016.8 1016.7 0.0
26/11:30am 32.8 30.0 11.3 27 12.6 ESE 17 26 9 14 1017.5 - 0.0
26/11:00am 32.5 29.4 11.6 28 12.3 E 19 28 10 15 1017.8 - 0.0
26/10:30am 31.4 28.7 11.7 29 11.5 E 17 26 9 14 1018.1 - 0.0
26/10:00am 30.5 27.1 12.4 33 10.7 E 22 35 12 19 1018.5 - 0.0
26/09:30am 28.7 27.8 14.9 43 8.4 SE 13 20 7 11 1018.6 - 0.0
26/09:00am 24.8 25.6 17.3 63 4.7 S 9 13 5 7 1018.8 1018.7 0.0
26/08:30am 22.7 25.7 18.5 77 2.6 CALM 0 2 0 1 1018.7 - 0.0
26/08:00am 20.2 22.3 19.0 93 0.8 W 6 9 3 5 1018.8 - 0.0
26/07:30am 18.4 20.6 18.4 100 0.0 W 4 6 2 3 1018.6 - 0.0
26/07:05am 17.1 17.8 17.1 100 0.0 SW 9 9 5 5 1018.4 - 0.0
26/07:00am 17.0 18.1 17.0 100 0.0 SW 7 9 4 5 1018.3 - 0.0
26/06:55am 17.2 18.5 17.2 100 0.0 SW 6 7 3 4 1018.2 - 0.0
26/06:30am 17.4 18.8 17.4 100 0.0 SW 6 7 3 4 1017.8 - 0.0
26/06:00am 17.5 20.1 17.5 100 0.0 CALM 0 0 0 0 1017.6 1017.5 0.0

Other Formats:

Comma delimited format used in spreadsheet applications
http://www.bom.gov.au/fwo/IDD60801/IDD60801.94239.axf

JavaScript Object Notation format (JSON) in row-major order
http://www.bom.gov.au/fwo/IDD60801/IDD60801.94239.json